createdAt,value
2023-01-02T00:01:04.036Z,100276.56
2023-01-02T00:03:31.011Z,100289.16
2023-01-02T00:05:57.683Z,100285.06
2023-01-02T00:08:24.221Z,100273.69
2023-01-02T00:10:53.068Z,100281.06
2023-01-02T00:13:19.931Z,100274.75
2023-01-02T00:15:46.688Z,100276.00
2023-01-02T00:18:13.240Z,100279.13
2023-01-02T00:20:39.859Z,100281.56
2023-01-02T00:23:06.399Z,100286.81
2023-01-02T00:25:34.749Z,100281.47
2023-01-02T00:28:01.876Z,100279.97
2023-01-02T00:30:33.838Z,100281.13
2023-01-02T00:33:04.509Z,100280.19
2023-01-02T00:35:31.347Z,100279.31
2023-01-02T00:37:57.989Z,100287.28
2023-01-02T00:40:24.538Z,100274.22
2023-01-02T00:42:51.224Z,100280.16
2023-01-02T00:45:17.803Z,100276.56
2023-01-02T00:47:44.362Z,100276.28
2023-01-02T00:50:10.949Z,100271.03
2023-01-02T00:52:37.634Z,100271.50
2023-01-02T00:55:04.652Z,100283.81
2023-01-02T00:57:31.279Z,100284.28
2023-01-02T00:59:57.888Z,100270.31
2023-01-02T01:02:24.866Z,100268.00
2023-01-02T01:04:51.443Z,100265.00
2023-01-02T01:07:18.109Z,100255.19
2023-01-02T01:09:44.602Z,100259.59
2023-01-02T01:12:11.149Z,100251.00
2023-01-02T01:14:37.804Z,100250.06
2023-01-02T01:17:04.449Z,100249.53
2023-01-02T01:19:35.575Z,100260.00
2023-01-02T01:22:02.522Z,100253.13
2023-01-02T01:24:29.196Z,100256.13
2023-01-02T01:26:55.754Z,100263.00
2023-01-02T01:29:22.668Z,100249.09
2023-01-02T01:31:49.192Z,100254.97
2023-01-02T01:34:15.789Z,100257.34
2023-01-02T01:36:42.405Z,100261.63
2023-01-02T01:39:09.177Z,100252.81
2023-01-02T01:41:35.859Z,100261.06
2023-01-02T01:44:22.355Z,100274.16
2023-01-02T01:46:49.042Z,100274.78
2023-01-02T01:49:24.779Z,100269.25
2023-01-02T01:52:09.967Z,100264.69
2023-01-02T01:54:42.771Z,100279.94
2023-01-02T01:57:32.014Z,100278.72
2023-01-02T02:00:01.734Z,100274.19
2023-01-02T02:02:31.026Z,100276.59
2023-01-02T02:05:00.465Z,100274.91
2023-01-02T02:07:27.935Z,100279.22
2023-01-02T02:10:06.161Z,100278.75
2023-01-02T02:12:33.780Z,100275.06
2023-01-02T02:15:00.527Z,100267.59
2023-01-02T02:17:50.275Z,100279.75
2023-01-02T02:20:19.851Z,100274.75
2023-01-02T02:23:08.342Z,100276.84
2023-01-02T02:26:08.330Z,100282.94
2023-01-02T02:29:12.594Z,100280.50
2023-01-02T02:31:51.108Z,100268.72
2023-01-02T02:34:40.664Z,100276.53
2023-01-02T02:37:26.761Z,100278.31
2023-01-02T02:40:40.986Z,100285.38
2023-01-02T02:43:28.215Z,100282.50
2023-01-02T02:46:07.967Z,100285.66
2023-01-02T02:48:56.431Z,100286.72
2023-01-02T02:51:38.304Z,100284.66
2023-01-02T02:54:33.181Z,100291.59
2023-01-02T02:57:01.447Z,100289.38
2023-01-02T02:59:28.572Z,100283.28
2023-01-02T03:01:55.246Z,100282.59
2023-01-02T03:04:22.936Z,100279.19
2023-01-02T03:07:09.470Z,100277.66
2023-01-02T03:09:49.352Z,100261.53
2023-01-02T03:12:31.232Z,100264.94
2023-01-02T03:15:02.479Z,100264.03
2023-01-02T03:17:44.007Z,100267.34
2023-01-02T03:20:16.824Z,100258.38
2023-01-02T03:22:49.510Z,100269.41
2023-01-02T03:25:17.148Z,100273.91
2023-01-02T03:27:46.811Z,100280.06
2023-01-02T03:30:22.023Z,100286.47
2023-01-02T03:32:57.941Z,100291.94
2023-01-02T03:35:32.751Z,100299.34
2023-01-02T03:37:59.757Z,100294.50
2023-01-02T03:40:30.744Z,100294.94
2023-01-02T03:43:08.898Z,100294.81
2023-01-02T03:45:46.866Z,100308.78
2023-01-02T03:48:51.752Z,100294.06
2023-01-02T03:51:18.504Z,100301.81
2023-01-02T03:53:46.691Z,100297.91
2023-01-02T03:56:26.570Z,100303.81
2023-01-02T03:59:10.287Z,100300.44
2023-01-02T04:01:48.223Z,100305.94
2023-01-02T04:04:50.899Z,100309.34
2023-01-02T04:07:28.802Z,100307.69
2023-01-02T04:09:57.250Z,100303.84
2023-01-02T04:12:25.932Z,100308.13
2023-01-02T04:15:11.166Z,100310.63
2023-01-02T04:17:50.256Z,100317.50
2023-01-02T04:20:25.724Z,100313.13
2023-01-02T04:22:59.452Z,100308.88
2023-01-02T04:25:31.609Z,100306.34
2023-01-02T04:28:09.566Z,100296.72
2023-01-02T04:30:42.020Z,100305.78
2023-01-02T04:33:11.894Z,100303.94
2023-01-02T04:35:38.541Z,100306.75
2023-01-02T04:38:10.300Z,100309.00
2023-01-02T04:40:38.018Z,100312.31
2023-01-02T04:43:14.639Z,100307.53
2023-01-02T04:45:41.201Z,100308.63
2023-01-02T04:48:07.756Z,100311.63
2023-01-02T04:50:34.353Z,100315.66
2023-01-02T04:53:01.111Z,100318.00
2023-01-02T04:55:27.761Z,100325.00
2023-01-02T04:57:54.256Z,100312.91
2023-01-02T05:00:21.002Z,100326.19
2023-01-02T05:02:47.568Z,100324.47
2023-01-02T05:05:14.453Z,100328.97
2023-01-02T05:07:41.125Z,100336.19
2023-01-02T05:10:08.256Z,100329.19
2023-01-02T05:12:36.008Z,100335.53
2023-01-02T05:15:03.832Z,100336.00
2023-01-02T05:17:35.380Z,100335.56
2023-01-02T05:20:02.606Z,100332.81
2023-01-02T05:22:47.859Z,100332.34
2023-01-02T05:25:14.504Z,100338.13
2023-01-02T05:27:41.055Z,100342.97
2023-01-02T05:30:08.392Z,100340.50
2023-01-02T05:32:34.976Z,100354.53
2023-01-02T05:35:01.617Z,100364.91
2023-01-02T05:37:30.144Z,100370.19
2023-01-02T05:39:56.706Z,100371.91
2023-01-02T05:42:23.208Z,100372.50
2023-01-02T05:44:51.056Z,100363.81
2023-01-02T05:47:17.898Z,100363.19
2023-01-02T05:49:44.489Z,100364.22
2023-01-02T05:52:11.015Z,100359.34
2023-01-02T05:54:37.682Z,100357.25
2023-01-02T05:57:04.211Z,100354.69
2023-01-02T05:59:34.482Z,100359.78
2023-01-02T06:02:02.695Z,100356.78
2023-01-02T06:04:29.245Z,100364.00
2023-01-02T06:06:55.843Z,100367.63
2023-01-02T06:09:22.389Z,100369.09
2023-01-02T06:11:48.947Z,100374.56
2023-01-02T06:14:15.444Z,100372.28
2023-01-02T06:16:42.105Z,100370.78
2023-01-02T06:19:08.652Z,100382.03
2023-01-02T06:21:35.214Z,100373.50
2023-01-02T06:24:01.750Z,100370.75
2023-01-02T06:26:34.515Z,100371.41
2023-01-02T06:29:02.232Z,100370.75
2023-01-02T06:31:29.536Z,100372.69
2023-01-02T06:33:58.613Z,100378.81
2023-01-02T06:36:25.741Z,100382.22
2023-01-02T06:38:52.403Z,100387.91
2023-01-02T06:41:18.943Z,100389.44
2023-01-02T06:43:47.995Z,100384.31
2023-01-02T06:46:17.591Z,100383.47
2023-01-02T06:48:44.570Z,100381.38
2023-01-02T06:51:16.877Z,100386.09
2023-01-02T06:53:44.829Z,100397.75
2023-01-02T06:56:13.284Z,100405.59
2023-01-02T06:58:40.143Z,100396.03
2023-01-02T07:01:18.996Z,100404.31
2023-01-02T07:03:45.887Z,100401.97
2023-01-02T07:06:16.654Z,100405.56
2023-01-02T07:08:44.304Z,100395.22
2023-01-02T07:11:16.663Z,100413.47
2023-01-02T07:13:46.794Z,100414.28
2023-01-02T07:16:16.522Z,100417.06
2023-01-02T07:18:43.994Z,100427.44
2023-01-02T07:21:11.625Z,100423.81
2023-01-02T07:23:38.670Z,100431.00
2023-01-02T07:26:06.772Z,100416.34
2023-01-02T07:28:35.238Z,100425.06
2023-01-02T07:31:05.210Z,100428.63
2023-01-02T07:33:32.746Z,100432.25
2023-01-02T07:36:06.823Z,100429.72
2023-01-02T07:38:34.410Z,100442.91
2023-01-02T07:41:00.977Z,100441.16
2023-01-02T07:43:27.641Z,100446.19
2023-01-02T07:45:54.497Z,100447.44
2023-01-02T07:48:21.062Z,100447.06
2023-01-02T07:50:48.141Z,100453.44
2023-01-02T07:53:15.581Z,100452.13
2023-01-02T07:55:42.144Z,100453.41
2023-01-02T07:58:08.820Z,100456.59
2023-01-02T08:00:35.400Z,100476.34
2023-01-02T08:03:02.103Z,100471.88
2023-01-02T08:05:28.654Z,100468.19
2023-01-02T08:07:55.368Z,100468.22
2023-01-02T08:10:22.733Z,100470.94
2023-01-02T08:12:49.314Z,100479.59
2023-01-02T08:15:15.901Z,100479.28
2023-01-02T08:17:42.487Z,100482.47
2023-01-02T08:20:10.274Z,100486.47
2023-01-02T08:22:37.472Z,100488.13
2023-01-02T08:25:04.552Z,100496.25
2023-01-02T08:27:31.285Z,100497.53
2023-01-02T08:29:58.026Z,100497.59
2023-01-02T08:32:25.996Z,100496.75
2023-01-02T08:34:52.601Z,100514.16
2023-01-02T08:37:19.243Z,100515.84
2023-01-02T08:39:45.755Z,100511.13
2023-01-02T08:42:12.380Z,100515.84
2023-01-02T08:44:39.010Z,100527.97
2023-01-02T08:47:05.843Z,100531.63
2023-01-02T08:49:32.385Z,100546.50
2023-01-02T08:51:59.023Z,100546.09
2023-01-02T08:54:25.544Z,100560.38
2023-01-02T08:56:52.220Z,100563.34
2023-01-02T08:59:18.814Z,100570.19
2023-01-02T09:01:45.676Z,100594.66
2023-01-02T09:04:13.478Z,100608.69
2023-01-02T09:06:41.894Z,100629.53
2023-01-02T09:09:12.548Z,100641.81
2023-01-02T09:11:52.159Z,100647.28
2023-01-02T09:14:20.854Z,100656.63
2023-01-02T09:16:48.766Z,100654.09
2023-01-02T09:19:15.405Z,100666.84
2023-01-02T09:21:42.072Z,100667.22
2023-01-02T09:24:09.083Z,100665.09
2023-01-02T09:26:37.948Z,100677.72
2023-01-02T09:29:04.872Z,100679.09
2023-01-02T09:31:31.443Z,100686.66
2023-01-02T09:33:58.012Z,100695.38
2023-01-02T09:36:24.740Z,100692.78
2023-01-02T09:38:53.326Z,100698.94
2023-01-02T09:41:25.247Z,100692.97
2023-01-02T09:43:58.018Z,100703.81
2023-01-02T09:46:48.344Z,100714.88
2023-01-02T09:49:18.709Z,100709.13
2023-01-02T09:51:46.098Z,100705.72
2023-01-02T09:54:22.493Z,100720.38
2023-01-02T09:56:58.730Z,100715.53
2023-01-02T09:59:33.909Z,100714.22
2023-01-02T10:02:16.010Z,100719.75
2023-01-02T10:04:53.516Z,100726.91
2023-01-02T10:07:41.485Z,100728.44
2023-01-02T10:10:14.685Z,100735.81
2023-01-02T10:16:27.855Z,100742.19
2023-01-02T10:18:55.606Z,100750.84
2023-01-02T10:21:30.075Z,100741.75
2023-01-02T10:24:05.139Z,100743.78
2023-01-02T10:26:37.093Z,100753.56
2023-01-02T10:29:11.999Z,100758.69
2023-01-02T10:31:41.534Z,100758.66
2023-01-02T10:34:15.578Z,100762.97
2023-01-02T10:36:44.124Z,100772.72
2023-01-02T10:39:16.911Z,100776.78
2023-01-02T10:41:50.207Z,100764.91
2023-01-02T10:44:34.659Z,100774.97
2023-01-02T10:47:11.047Z,100765.59
2023-01-02T10:49:39.078Z,100772.06
2023-01-02T10:52:18.229Z,100760.88
2023-01-02T10:55:00.110Z,100751.09
2023-01-02T10:57:38.324Z,100748.72
2023-01-02T11:00:08.551Z,100755.53
2023-01-02T11:02:40.593Z,100764.22
2023-01-02T11:05:18.619Z,100765.69
2023-01-02T11:07:48.705Z,100760.41
2023-01-02T11:10:36.336Z,100764.91
2023-01-02T11:13:04.823Z,100771.38
2023-01-02T11:15:34.637Z,100762.06
2023-01-02T11:18:03.847Z,100752.91
2023-01-02T11:20:33.643Z,100768.97
2023-01-02T11:23:02.811Z,100775.81
2023-01-02T11:25:39.968Z,100787.28
2023-01-02T11:28:18.450Z,100785.13
2023-01-02T11:30:47.290Z,100800.50
2023-01-02T11:33:13.841Z,100802.88
2023-01-02T11:35:50.421Z,100801.63
2023-01-02T11:38:29.356Z,100816.16
2023-01-02T11:41:02.579Z,100813.41
2023-01-02T11:43:52.619Z,100824.03
2023-01-02T11:46:34.184Z,100816.00
2023-01-02T11:49:13.440Z,100812.56
2023-01-02T11:51:41.132Z,100806.78
2023-01-02T11:54:21.670Z,100818.31
2023-01-02T11:56:49.703Z,100805.00
2023-01-02T11:59:24.711Z,100816.59
2023-01-02T12:01:51.732Z,100817.50
2023-01-02T12:04:18.553Z,100811.03
2023-01-02T12:07:05.133Z,100803.94
2023-01-02T12:09:43.812Z,100814.41
2023-01-02T12:12:34.725Z,100809.31
2023-01-02T12:15:18.439Z,100812.41
2023-01-02T12:17:51.410Z,100815.94
2023-01-02T12:20:23.160Z,100824.09
2023-01-02T12:23:12.166Z,100825.38
2023-01-02T12:26:09.067Z,100835.34
2023-01-02T12:28:55.168Z,100835.66
2023-01-02T12:31:49.312Z,100843.59
2023-01-02T12:34:43.565Z,100843.97
2023-01-02T12:37:19.763Z,100852.41
2023-01-02T12:40:09.229Z,100845.22
2023-01-02T12:43:04.195Z,100850.50
2023-01-02T12:45:52.299Z,100871.19
2023-01-02T12:48:54.484Z,100868.91
2023-01-02T12:51:28.108Z,100875.34
2023-01-02T12:54:20.054Z,100866.78
2023-01-02T12:57:05.467Z,100872.97
2023-01-02T13:00:11.721Z,100866.09
2023-01-02T13:02:53.958Z,100855.63
2023-01-02T13:05:27.769Z,100853.16
2023-01-02T13:08:05.329Z,100855.00
2023-01-02T13:10:33.450Z,100859.66
2023-01-02T13:13:01.511Z,100868.06
2023-01-02T13:15:34.431Z,100874.16
2023-01-02T13:18:23.778Z,100876.00
2023-01-02T13:21:05.065Z,100872.44
2023-01-02T13:23:35.181Z,100871.00
2023-01-02T13:26:09.772Z,100874.75
2023-01-02T13:28:45.845Z,100881.41
2023-01-02T13:31:45.528Z,100892.44
2023-01-02T13:34:07.776Z,100883.31
2023-01-02T13:36:47.619Z,100893.88
2023-01-02T13:39:32.390Z,100894.13
2023-01-02T13:42:21.346Z,100893.06
2023-01-02T13:44:56.490Z,100904.75
2023-01-02T13:47:38.675Z,100903.56
2023-01-02T13:50:32.090Z,100900.25
2023-01-02T13:53:04.268Z,100899.31
2023-01-02T13:55:33.930Z,100908.16
2023-01-02T13:58:18.666Z,100901.72
2023-01-02T14:00:55.062Z,100889.63
2023-01-02T14:03:24.969Z,100895.53
2023-01-02T14:06:03.587Z,100899.38
2023-01-02T14:08:31.802Z,100911.03
2023-01-02T14:11:01.743Z,100906.97
2023-01-02T14:13:51.161Z,100917.56
2023-01-02T14:16:51.953Z,100922.81
2023-01-02T14:19:23.864Z,100930.38
2023-01-02T14:21:59.859Z,100937.78
2023-01-02T14:24:31.431Z,100932.81
2023-01-02T14:27:02.005Z,100933.91
2023-01-02T14:29:30.355Z,100924.97
2023-01-02T14:32:01.347Z,100936.53
2023-01-02T14:34:28.498Z,100942.56
2023-01-02T14:37:00.252Z,100942.31
2023-01-02T14:39:28.437Z,100938.09
2023-01-02T14:42:13.740Z,100933.63
2023-01-02T14:44:53.488Z,100947.00
2023-01-02T14:47:34.054Z,100960.69
2023-01-02T14:50:04.478Z,100957.34
2023-01-02T14:52:38.406Z,100952.63
2023-01-02T14:55:41.462Z,100953.13
2023-01-02T14:58:36.941Z,100958.25
2023-01-02T15:01:05.631Z,100978.34
2023-01-02T15:03:49.424Z,100980.81
2023-01-02T15:06:25.418Z,100975.38
2023-01-02T15:08:56.505Z,100979.84
2023-01-02T15:11:44.441Z,100990.09
2023-01-02T15:14:23.366Z,101001.75
2023-01-02T15:16:57.953Z,101004.03
2023-01-02T15:19:30.671Z,101005.19
2023-01-02T15:21:57.354Z,100994.22
2023-01-02T15:24:27.873Z,101000.34
2023-01-02T15:26:54.550Z,100994.75
2023-01-02T15:29:24.836Z,100995.63
2023-01-02T15:32:00.979Z,100999.59
2023-01-02T15:34:30.826Z,101010.63
2023-01-02T15:37:07.625Z,101000.75
2023-01-02T15:39:38.289Z,101011.63
2023-01-02T15:43:00.195Z,101011.00
2023-01-02T15:45:27.343Z,101021.09
2023-01-02T15:47:54.175Z,101029.84
2023-01-02T15:50:29.719Z,101035.63
2023-01-02T15:53:02.803Z,101038.84
2023-01-02T15:55:38.738Z,101038.00
2023-01-02T15:58:30.572Z,101040.38
2023-01-02T16:01:13.935Z,101040.75
2023-01-02T16:04:02.420Z,101040.94
2023-01-02T16:06:34.815Z,101057.19
2023-01-02T16:09:08.008Z,101057.00
2023-01-02T16:11:45.463Z,101061.44
2023-01-02T16:14:20.853Z,101054.63
2023-01-02T16:16:55.241Z,101068.88
2023-01-02T16:19:32.982Z,101072.59
2023-01-02T16:22:21.849Z,101066.78
2023-01-02T16:24:53.966Z,101083.69
2023-01-02T16:27:27.084Z,101094.69
2023-01-02T16:29:54.318Z,101097.66
2023-01-02T16:32:26.325Z,101110.38
2023-01-02T16:35:34.446Z,101101.44
2023-01-02T16:38:19.514Z,101102.59
2023-01-02T16:41:00.909Z,101106.50
2023-01-02T16:43:30.642Z,101121.31
2023-01-02T16:45:58.364Z,101117.91
2023-01-02T16:48:28.276Z,101114.66
2023-01-02T16:50:57.221Z,101116.69
2023-01-02T16:53:33.663Z,101118.28
2023-01-02T16:56:00.748Z,101122.72
2023-01-02T16:58:27.559Z,101124.16
2023-01-02T17:00:55.550Z,101124.91
2023-01-02T17:03:24.972Z,101118.91
2023-01-02T17:06:01.792Z,101132.22
2023-01-02T17:08:30.976Z,101138.72
2023-01-02T17:10:59.072Z,101143.75
2023-01-02T17:13:26.255Z,101142.75
2023-01-02T17:15:52.811Z,101141.44
2023-01-02T17:18:19.632Z,101151.44
2023-01-02T17:20:46.238Z,101153.78
2023-01-02T17:23:13.207Z,101158.81
2023-01-02T17:25:42.835Z,101165.56
2023-01-02T17:28:10.564Z,101170.78
2023-01-02T17:30:37.335Z,101173.25
2023-01-02T17:33:04.623Z,101179.41
2023-01-02T17:35:33.710Z,101180.13
2023-01-02T17:38:00.336Z,101186.13
2023-01-02T17:40:27.122Z,101192.31
2023-01-02T17:42:54.060Z,101190.03
2023-01-02T17:45:21.234Z,101195.44
2023-01-02T17:48:02.116Z,101200.22
2023-01-02T17:50:31.912Z,101209.91
2023-01-02T17:52:59.742Z,101213.91
2023-01-02T17:55:26.666Z,101220.31
2023-01-02T17:57:53.750Z,101211.47
2023-01-02T18:00:23.180Z,101216.13
2023-01-02T18:02:50.225Z,101222.69
2023-01-02T18:05:17.109Z,101221.00
2023-01-02T18:07:43.662Z,101228.34
2023-01-02T18:10:12.488Z,101236.91
2023-01-02T18:12:42.738Z,101241.97
2023-01-02T18:15:12.157Z,101252.06
2023-01-02T18:17:38.692Z,101254.00
2023-01-02T18:20:10.881Z,101248.63
2023-01-02T18:22:42.425Z,101257.66
2023-01-02T18:25:24.311Z,101261.38
2023-01-02T18:27:58.038Z,101269.34
2023-01-02T18:30:26.293Z,101266.00
2023-01-02T18:33:03.686Z,101269.50
2023-01-02T18:38:39.375Z,101288.44
2023-01-02T18:41:27.280Z,101280.25
2023-01-02T18:44:01.198Z,101287.72
2023-01-02T18:47:02.233Z,101283.34
2023-01-02T18:49:27.147Z,101289.00
2023-01-02T18:52:12.865Z,101296.47
2023-01-02T18:54:43.139Z,101296.56
2023-01-02T18:57:35.080Z,101300.56
2023-01-02T19:00:29.767Z,101305.38
2023-01-02T19:03:08.823Z,101305.50
2023-01-02T19:05:44.033Z,101308.78
2023-01-02T19:08:28.704Z,101312.00
2023-01-02T19:10:57.362Z,101324.00
2023-01-02T19:13:32.209Z,101332.94
2023-01-02T19:16:00.671Z,101341.78
2023-01-02T19:18:35.093Z,101343.03
2023-01-02T19:21:04.647Z,101340.44
2023-01-02T19:23:42.691Z,101357.13
2023-01-02T19:26:18.123Z,101357.66
2023-01-02T19:29:13.682Z,101354.19
2023-01-02T19:31:51.375Z,101371.75
2023-01-02T19:34:28.634Z,101379.38
2023-01-02T19:37:11.759Z,101377.34
2023-01-02T19:40:02.891Z,101380.25
2023-01-02T19:42:31.903Z,101383.75
2023-01-02T19:45:14.142Z,101389.31
2023-01-02T19:47:40.945Z,101391.00
2023-01-02T19:50:11.019Z,101388.78
2023-01-02T19:52:37.668Z,101400.25
2023-01-02T19:55:05.911Z,101412.28
2023-01-02T19:57:32.683Z,101404.28
2023-01-02T20:00:02.095Z,101414.06
2023-01-02T20:02:39.897Z,101414.63
2023-01-02T20:05:07.101Z,101411.00
2023-01-02T20:07:33.673Z,101413.25
2023-01-02T20:10:00.440Z,101420.97
2023-01-02T20:12:41.001Z,101426.84
2023-01-02T20:15:15.514Z,101426.81
2023-01-02T20:17:42.157Z,101425.28
2023-01-02T20:20:13.336Z,101436.47
2023-01-02T20:22:43.175Z,101440.59
2023-01-02T20:25:15.583Z,101438.69
2023-01-02T20:27:42.181Z,101451.59
2023-01-02T20:30:10.411Z,101460.69
2023-01-02T20:32:37.153Z,101452.28
2023-01-02T20:35:04.722Z,101456.16
2023-01-02T20:37:31.366Z,101462.06
2023-01-02T20:39:58.152Z,101471.88
2023-01-02T20:42:25.331Z,101470.16
2023-01-02T20:44:52.271Z,101477.69
2023-01-02T20:47:19.135Z,101478.41
2023-01-02T20:49:45.634Z,101484.22
2023-01-02T20:52:12.503Z,101478.56
2023-01-02T20:54:40.497Z,101489.94
2023-01-02T20:57:07.160Z,101494.94
2023-01-02T20:59:33.981Z,101504.00
2023-01-02T21:02:00.733Z,101519.50
2023-01-02T21:04:32.583Z,101509.50
2023-01-02T21:07:03.614Z,101508.50
2023-01-02T21:09:30.357Z,101507.13
2023-01-02T21:11:56.958Z,101514.50
2023-01-02T21:14:24.363Z,101510.41
2023-01-02T21:16:51.089Z,101513.28
2023-01-02T21:19:17.612Z,101530.66
2023-01-02T21:21:44.198Z,101540.94
2023-01-02T21:24:10.822Z,101533.94
2023-01-02T21:26:37.456Z,101549.38
2023-01-02T21:29:05.428Z,101546.16
2023-01-02T21:31:33.822Z,101554.06
2023-01-02T21:34:00.793Z,101556.97
2023-01-02T21:36:28.151Z,101551.25
2023-01-02T21:38:55.421Z,101569.16
2023-01-02T21:41:40.625Z,101561.94
2023-01-02T21:44:07.392Z,101563.66
2023-01-02T21:46:33.933Z,101566.03
2023-01-02T21:49:00.738Z,101566.31
2023-01-02T21:51:32.460Z,101564.25
2023-01-02T21:53:59.869Z,101567.88
2023-01-02T21:56:26.734Z,101562.56
2023-01-02T21:58:54.830Z,101564.91
2023-01-02T22:01:21.414Z,101577.28
2023-01-02T22:03:48.152Z,101570.59
2023-01-02T22:06:16.468Z,101568.91
2023-01-02T22:08:43.080Z,101577.09
2023-01-02T22:11:28.722Z,101584.47
2023-01-02T22:13:55.739Z,101581.34
2023-01-02T22:16:23.260Z,101589.66
2023-01-02T22:18:50.571Z,101593.41
2023-01-02T22:21:17.096Z,101599.28
2023-01-02T22:23:43.777Z,101596.91
2023-01-02T22:26:10.954Z,101603.47
2023-01-02T22:28:37.626Z,101606.19
2023-01-02T22:31:05.950Z,101609.63
2023-01-02T22:33:33.816Z,101622.69
2023-01-02T22:36:00.486Z,101622.00
2023-01-02T22:38:27.096Z,101619.28
2023-01-02T22:40:54.990Z,101620.41
2023-01-02T22:43:24.698Z,101633.63
2023-01-02T22:45:53.352Z,101641.03
2023-01-02T22:48:26.490Z,101640.88
2023-01-02T22:51:00.753Z,101639.31
2023-01-02T22:53:33.236Z,101635.72
2023-01-02T22:56:02.438Z,101630.44
2023-01-02T22:58:29.194Z,101635.25
2023-01-02T23:01:01.146Z,101641.41
2023-01-02T23:03:37.683Z,101642.31
2023-01-02T23:06:04.355Z,101646.94
2023-01-02T23:08:30.994Z,101643.56
2023-01-02T23:10:57.811Z,101649.06
2023-01-02T23:13:25.300Z,101643.63
2023-01-02T23:16:10.682Z,101658.03
2023-01-02T23:18:57.175Z,101659.59
2023-01-02T23:21:28.136Z,101661.50
2023-01-02T23:23:54.769Z,101667.66
2023-01-02T23:26:24.061Z,101679.25
2023-01-02T23:29:08.148Z,101671.47
2023-01-02T23:31:38.517Z,101680.44
2023-01-02T23:34:05.934Z,101675.91
2023-01-02T23:36:32.734Z,101672.16
2023-01-02T23:38:59.898Z,101675.38
2023-01-02T23:41:26.444Z,101674.84
2023-01-02T23:43:53.043Z,101680.75
2023-01-02T23:46:19.654Z,101678.53
2023-01-02T23:48:46.804Z,101670.25
2023-01-02T23:51:13.527Z,101679.59
2023-01-02T23:53:40.286Z,101675.56
2023-01-02T23:56:24.880Z,101666.25
2023-01-02T23:58:54.712Z,101662.13
